Portada
METAR-TAF:

METAR-TAF

Aeropuertos :

Aeropuerto de Palma de Mallorca

Palma de Mallorca, España

latitud: 39-33N, longitud: 002-44E, altitud: 4 m

Observación

El informe se hizo hace 22 minutos, a las 01:00 UTC
Viento 13 kt del este-noreste
Temperatura 22°C
Humedad 69%
Presión 1022 hPa
Visibilidad 10 km o más
Escasas nubes a una altura de 2800 ft

METAR: LEPA 250100Z 07013KT 9999 FEW028 22/16 Q1022 NOSIG

Hora: 03:22 (01:22 UTC)

Pronóstico

El informe se hizo hace 2 horas y 22 minutos, a las 23:00 UTC
Pronóstico válido del 25 a las 00 UTC al 25 a las 24 UTC
Viento 10 kt del este-noreste
Visibilidad 10 km o más
Escasas nubes a una altura de 3000 ft
Temporalmente
del 25 a las 08 UTC al 25 a las 18 UTC
Viento 18 kt del este-noreste

TAF: LEPA 242300Z 2500/2524 06010KT 9999 FEW030 TX28/2512Z TN19/2506Z TEMPO 2508/2518 06018KT

Observaciones y pronósticos meteorológicos de más de 4000 aeropuertos (mensajes METAR y TAF).

Los puntos amarillos y rojos representan las estaciones disponibles.

Ponga el ratón en el punto deseado para ver el nombre de la estación.

Haga clic para ver las observaciones y los pronósticos meteorológicos.

Para cambiar el mapa : haga clic en los botones verdes con una cruz de color negro para hacer un zoom, en el botón verde con un guión para alejar o en las flechas verdes para mapas adyacentes.


METAR-TAF: